createdAt,value
2023-03-21T00:00:24.954Z,12.20
2023-03-21T00:01:27.315Z,11.43
2023-03-21T00:02:29.667Z,13.00
2023-03-21T00:03:34.233Z,12.83
2023-03-21T00:04:50.386Z,12.27
2023-03-21T00:05:54.021Z,12.33
2023-03-21T00:06:56.527Z,12.87
2023-03-21T00:08:01.194Z,11.13
2023-03-21T00:09:04.630Z,12.50
2023-03-21T00:10:15.521Z,11.60
2023-03-21T00:11:18.980Z,12.53
2023-03-21T00:12:22.267Z,11.13
2023-03-21T00:13:26.601Z,11.33
2023-03-21T00:14:31.326Z,13.10
2023-03-21T00:15:48.510Z,12.63
2023-03-21T00:16:57.422Z,12.10
2023-03-21T00:18:04.491Z,13.50
2023-03-21T00:19:07.702Z,13.17
2023-03-21T00:20:15.718Z,12.17
2023-03-21T00:21:40.976Z,12.30
2023-03-21T00:22:44.869Z,13.67
2023-03-21T00:23:47.784Z,12.10
2023-03-21T00:24:49.989Z,12.97
2023-03-21T00:25:52.435Z,12.60
2023-03-21T00:27:02.223Z,13.27
2023-03-21T00:28:12.847Z,14.57
2023-03-21T00:29:17.684Z,15.30
2023-03-21T00:30:24.159Z,14.73
2023-03-21T00:31:26.695Z,14.27
2023-03-21T00:32:28.993Z,15.30
2023-03-21T00:33:32.460Z,17.90
2023-03-21T00:34:43.070Z,16.80
2023-03-21T00:36:01.818Z,16.70
2023-03-21T00:37:07.401Z,16.23
2023-03-21T00:38:10.484Z,15.27
2023-03-21T00:39:17.185Z,16.13
2023-03-21T00:40:27.940Z,15.07
2023-03-21T00:41:43.105Z,15.20
2023-03-21T00:42:45.917Z,14.93
2023-03-21T00:43:48.180Z,17.23
2023-03-21T00:44:50.440Z,17.20
2023-03-21T00:45:52.728Z,15.10
2023-03-21T00:47:06.465Z,15.50
2023-03-21T00:48:10.099Z,13.73
2023-03-21T00:49:12.510Z,15.30
2023-03-21T00:50:16.782Z,16.37
2023-03-21T00:51:26.693Z,14.73
2023-03-21T00:52:40.533Z,15.63
2023-03-21T00:53:43.326Z,13.97
2023-03-21T00:54:46.960Z,14.57
2023-03-21T00:55:50.720Z,15.60
2023-03-21T00:56:53.708Z,14.83
2023-03-21T00:58:02.176Z,15.23
2023-03-21T00:59:05.853Z,13.17
2023-03-21T01:00:10.899Z,15.07
2023-03-21T01:01:13.397Z,14.60
2023-03-21T01:02:23.508Z,13.50
2023-03-21T01:03:26.793Z,13.93
2023-03-21T01:04:29.485Z,14.97
2023-03-21T01:05:53.757Z,14.77
2023-03-21T01:06:56.278Z,14.97
2023-03-21T01:07:58.605Z,15.03
2023-03-21T01:09:01.867Z,14.57
2023-03-21T01:10:04.532Z,15.33
2023-03-21T01:11:09.816Z,15.47
2023-03-21T01:12:12.120Z,15.50
2023-03-21T01:13:17.094Z,14.17
2023-03-21T01:14:23.512Z,15.43
2023-03-21T01:15:26.686Z,16.00
2023-03-21T01:16:29.116Z,15.63
2023-03-21T01:17:32.021Z,14.80
2023-03-21T01:18:38.308Z,13.63
2023-03-21T01:19:51.476Z,13.73
2023-03-21T01:20:57.413Z,15.57
2023-03-21T01:21:59.977Z,16.27
2023-03-21T01:23:02.570Z,13.43
2023-03-21T01:24:05.340Z,15.67
2023-03-21T01:25:21.927Z,16.30
2023-03-21T01:26:25.138Z,17.53
2023-03-21T01:27:27.405Z,14.27
2023-03-21T01:28:30.922Z,15.43
2023-03-21T01:29:33.803Z,14.17
2023-03-21T01:30:41.680Z,13.70
2023-03-21T01:31:44.456Z,17.03
2023-03-21T01:32:47.482Z,15.63
2023-03-21T01:33:50.453Z,15.30
2023-03-21T01:34:53.310Z,15.13
2023-03-21T01:36:10.270Z,15.33
2023-03-21T01:37:17.867Z,15.80
2023-03-21T01:38:26.050Z,14.87
2023-03-21T01:39:28.617Z,15.47
2023-03-21T01:40:31.099Z,18.43
2023-03-21T01:41:44.787Z,15.37
2023-03-21T01:43:02.266Z,14.73
2023-03-21T01:44:05.401Z,15.77
2023-03-21T01:45:52.442Z,15.77
2023-03-21T01:47:12.200Z,15.40
2023-03-21T01:48:22.101Z,16.80
2023-03-21T01:49:36.153Z,18.00
2023-03-21T01:51:05.184Z,17.47
2023-03-21T01:52:33.279Z,15.20
2023-03-21T01:53:41.803Z,17.73
2023-03-21T01:54:47.846Z,15.90
2023-03-21T01:55:50.724Z,16.00
2023-03-21T01:57:16.453Z,15.07
2023-03-21T01:58:19.269Z,16.03
2023-03-21T01:59:54.840Z,15.80
2023-03-21T02:01:23.035Z,17.70
2023-03-21T02:02:31.583Z,16.33
2023-03-21T02:03:52.273Z,16.83
2023-03-21T02:05:48.038Z,18.00
2023-03-21T02:07:03.823Z,18.07
2023-03-21T02:08:15.128Z,15.80
2023-03-21T02:09:22.756Z,17.43
2023-03-21T02:10:25.568Z,17.00
2023-03-21T02:11:32.312Z,17.43
2023-03-21T02:12:34.652Z,15.60
2023-03-21T02:13:38.553Z,17.30
2023-03-21T02:14:43.933Z,16.83
2023-03-21T02:16:12.862Z,19.50
2023-03-21T02:17:33.357Z,17.70
2023-03-21T02:18:39.777Z,19.87
2023-03-21T02:20:07.595Z,19.83
2023-03-21T02:21:48.266Z,18.90
2023-03-21T02:23:27.458Z,19.20
2023-03-21T02:25:01.563Z,20.50
2023-03-21T02:26:28.464Z,20.17
2023-03-21T02:27:46.298Z,17.53
2023-03-21T02:29:30.418Z,17.73
2023-03-21T02:30:39.962Z,18.63
2023-03-21T02:32:28.435Z,20.37
2023-03-21T02:33:47.699Z,18.43
2023-03-21T02:34:54.769Z,19.83
2023-03-21T02:36:17.046Z,17.80
2023-03-21T02:37:36.969Z,17.17
2023-03-21T02:39:23.431Z,18.97
2023-03-21T02:40:33.325Z,17.57
2023-03-21T02:41:57.993Z,18.50
2023-03-21T02:43:24.455Z,19.13
2023-03-21T02:44:41.664Z,19.97
2023-03-21T02:46:18.809Z,17.73
2023-03-21T02:47:40.170Z,20.10
2023-03-21T02:48:53.550Z,18.43
2023-03-21T02:50:02.861Z,19.13
2023-03-21T02:51:07.777Z,19.10
2023-03-21T02:52:31.893Z,18.03
2023-03-21T02:53:43.987Z,20.43
2023-03-21T02:54:49.318Z,18.80
2023-03-21T02:55:57.778Z,19.27
2023-03-21T02:57:04.506Z,20.23
2023-03-21T02:58:13.434Z,20.17
2023-03-21T02:59:27.664Z,18.27
2023-03-21T03:00:33.748Z,20.07
2023-03-21T03:01:37.513Z,19.67
2023-03-21T03:02:41.243Z,20.80
2023-03-21T03:03:44.442Z,19.10
2023-03-21T03:04:47.924Z,18.63
2023-03-21T03:05:57.102Z,18.97
2023-03-21T03:07:28.934Z,18.93
2023-03-21T03:08:56.253Z,17.83
2023-03-21T03:10:04.805Z,18.30
2023-03-21T03:11:21.985Z,18.50
2023-03-21T03:13:01.757Z,18.43
2023-03-21T03:14:44.268Z,18.67
2023-03-21T03:16:11.930Z,18.73
2023-03-21T03:17:26.282Z,21.33
2023-03-21T03:18:49.773Z,19.90
2023-03-21T03:20:21.835Z,18.33
2023-03-21T03:21:33.519Z,19.80
2023-03-21T03:22:54.746Z,19.90
2023-03-21T03:24:01.659Z,18.93
2023-03-21T03:25:21.351Z,19.53
2023-03-21T03:26:38.960Z,22.13
2023-03-21T03:27:44.906Z,19.07
2023-03-21T03:28:52.107Z,20.00
2023-03-21T03:30:00.855Z,19.30
2023-03-21T03:31:09.676Z,20.90
2023-03-21T03:32:26.143Z,20.07
2023-03-21T03:33:29.825Z,19.73
2023-03-21T03:34:39.733Z,23.87
2023-03-21T03:35:48.287Z,20.73
2023-03-21T03:37:00.594Z,19.90
2023-03-21T03:38:07.130Z,19.67
2023-03-21T03:39:12.354Z,21.77
2023-03-21T03:40:25.849Z,21.23
2023-03-21T03:42:12.664Z,19.93
2023-03-21T03:43:25.346Z,21.27
2023-03-21T03:44:28.628Z,21.13
2023-03-21T03:45:47.863Z,18.37
2023-03-21T03:47:26.220Z,20.37
2023-03-21T03:48:37.542Z,20.50
2023-03-21T03:49:54.538Z,20.80
2023-03-21T03:51:06.447Z,21.17
2023-03-21T03:52:55.264Z,21.50
2023-03-21T03:54:04.629Z,23.87
2023-03-21T03:55:11.554Z,21.30
2023-03-21T03:56:17.171Z,21.47
2023-03-21T03:57:20.449Z,21.77
2023-03-21T03:58:36.145Z,21.30
2023-03-21T03:59:46.753Z,20.20
2023-03-21T04:00:56.177Z,22.13
2023-03-21T04:01:58.766Z,22.33
2023-03-21T04:03:01.830Z,24.10
2023-03-21T04:04:12.971Z,22.23
2023-03-21T04:05:21.347Z,20.73
2023-03-21T04:06:24.518Z,21.33
2023-03-21T04:07:27.982Z,22.17
2023-03-21T04:08:34.392Z,20.47
2023-03-21T04:09:44.018Z,21.10
2023-03-21T04:10:48.503Z,21.90
2023-03-21T04:11:51.234Z,21.17
2023-03-21T04:12:54.323Z,23.97
2023-03-21T04:13:56.839Z,21.17
2023-03-21T04:15:09.545Z,22.83
2023-03-21T04:16:14.562Z,21.87
2023-03-21T04:17:18.828Z,20.50
2023-03-21T04:18:23.452Z,21.40
2023-03-21T04:19:25.679Z,21.27
2023-03-21T04:20:43.125Z,23.10
2023-03-21T04:21:46.712Z,24.60
2023-03-21T04:22:49.116Z,23.07
2023-03-21T04:23:51.859Z,22.53
2023-03-21T04:24:54.988Z,21.20
2023-03-21T04:25:57.570Z,22.40
2023-03-21T04:27:11.225Z,22.87
2023-03-21T04:28:17.661Z,22.17
2023-03-21T04:29:29.953Z,21.70
2023-03-21T04:30:35.123Z,22.70
2023-03-21T04:31:46.187Z,21.30
2023-03-21T04:32:56.871Z,22.60
2023-03-21T04:34:03.179Z,22.07
2023-03-21T04:35:08.466Z,20.90
2023-03-21T04:36:26.550Z,23.63
2023-03-21T04:37:34.086Z,21.53
2023-03-21T04:38:37.184Z,23.33
2023-03-21T04:39:40.318Z,24.17
2023-03-21T04:40:42.590Z,24.47
2023-03-21T04:41:46.448Z,20.97
2023-03-21T04:42:48.680Z,23.00
2023-03-21T04:43:52.718Z,23.03
2023-03-21T04:44:56.074Z,23.47
2023-03-21T04:46:00.941Z,21.03
2023-03-21T04:47:03.666Z,22.33
2023-03-21T04:48:06.443Z,23.53
2023-03-21T04:49:11.473Z,24.93
2023-03-21T04:50:14.003Z,22.00
2023-03-21T04:51:16.755Z,23.90
2023-03-21T04:52:19.369Z,22.50
2023-03-21T04:53:22.778Z,23.77
2023-03-21T04:54:25.789Z,22.37
2023-03-21T04:55:29.618Z,24.63
2023-03-21T04:56:36.363Z,23.03
2023-03-21T04:57:38.849Z,23.07
2023-03-21T04:58:42.681Z,24.03
2023-03-21T04:59:45.327Z,23.10
2023-03-21T05:00:47.822Z,24.43
2023-03-21T05:01:50.761Z,23.33
2023-03-21T05:02:52.925Z,25.60
2023-03-21T05:04:04.481Z,22.70
2023-03-21T05:05:11.415Z,25.10
2023-03-21T05:06:15.894Z,24.37
2023-03-21T05:07:18.761Z,24.83
2023-03-21T05:08:21.476Z,22.50
2023-03-21T05:09:23.790Z,24.07
2023-03-21T05:10:26.791Z,22.80
2023-03-21T05:11:33.443Z,21.53
2023-03-21T05:12:35.956Z,20.90
2023-03-21T05:13:38.216Z,21.23
2023-03-21T05:14:40.564Z,20.07
2023-03-21T05:15:43.091Z,20.10
2023-03-21T05:16:53.509Z,18.30
2023-03-21T05:17:58.829Z,19.60
2023-03-21T05:19:05.077Z,19.07
2023-03-21T05:20:16.167Z,15.87
2023-03-21T05:21:19.354Z,16.90
2023-03-21T05:22:26.912Z,14.83
2023-03-21T05:23:31.708Z,14.83
2023-03-21T05:24:34.552Z,12.40
2023-03-21T05:25:38.668Z,12.87
2023-03-21T05:27:02.521Z,13.33
2023-03-21T05:28:08.252Z,12.83
2023-03-21T05:29:12.347Z,11.90
2023-03-21T05:30:17.837Z,11.97
2023-03-21T05:31:22.478Z,12.67
2023-03-21T05:32:29.355Z,10.50
2023-03-21T05:33:33.030Z,11.60
2023-03-21T05:34:35.727Z,9.60
2023-03-21T05:35:38.727Z,9.67
2023-03-21T05:36:43.988Z,11.87
2023-03-21T05:37:47.213Z,10.70
2023-03-21T05:38:51.451Z,10.53
2023-03-21T05:39:54.919Z,10.63
2023-03-21T05:41:06.000Z,10.47
2023-03-21T05:42:08.438Z,11.20
2023-03-21T05:43:10.760Z,10.17
2023-03-21T05:44:13.614Z,10.30
2023-03-21T05:45:16.760Z,12.00
2023-03-21T05:46:19.142Z,9.50
2023-03-21T05:47:21.394Z,8.97
2023-03-21T05:48:23.735Z,8.80
2023-03-21T05:49:49.963Z,9.50
2023-03-21T05:50:53.901Z,10.03
2023-03-21T05:51:57.691Z,9.50
2023-03-21T05:53:01.321Z,9.83
2023-03-21T05:54:03.931Z,8.57
2023-03-21T05:55:07.117Z,8.60
2023-03-21T05:56:10.001Z,8.67
2023-03-21T05:57:39.711Z,8.47
2023-03-21T05:58:44.585Z,8.50
2023-03-21T05:59:47.438Z,8.83
2023-03-21T06:00:49.950Z,8.20
2023-03-21T06:02:00.190Z,10.53
2023-03-21T06:03:02.436Z,9.73
2023-03-21T06:04:24.707Z,10.13
2023-03-21T06:05:27.249Z,7.87
2023-03-21T06:06:31.130Z,9.57
2023-03-21T06:07:38.692Z,8.37
2023-03-21T06:08:41.185Z,9.40
2023-03-21T06:09:43.547Z,8.87
2023-03-21T06:10:45.905Z,9.67
2023-03-21T06:11:52.393Z,7.63
2023-03-21T06:13:13.797Z,8.07
2023-03-21T06:14:16.823Z,9.53
2023-03-21T06:15:20.548Z,9.17
2023-03-21T06:16:28.990Z,9.43
2023-03-21T06:17:32.991Z,11.83
2023-03-21T06:18:39.517Z,11.00
2023-03-21T06:20:03.935Z,6.90
2023-03-21T06:21:11.988Z,9.80
2023-03-21T06:22:19.255Z,7.90
2023-03-21T06:23:21.528Z,8.33
2023-03-21T06:24:23.973Z,7.53
2023-03-21T06:25:26.186Z,7.57
2023-03-21T06:26:28.419Z,8.77
2023-03-21T06:27:32.038Z,7.40
2023-03-21T06:28:34.779Z,8.77
2023-03-21T06:29:37.026Z,7.73
2023-03-21T06:30:40.614Z,6.87
2023-03-21T06:31:50.977Z,8.40
2023-03-21T06:32:55.168Z,7.50
2023-03-21T06:33:57.538Z,9.90
2023-03-21T06:34:59.801Z,10.57
2023-03-21T06:36:03.584Z,7.17
2023-03-21T06:37:06.725Z,8.07
2023-03-21T06:38:10.979Z,7.33
2023-03-21T06:39:16.112Z,8.03
2023-03-21T06:40:20.636Z,8.20
2023-03-21T06:41:23.399Z,7.03
2023-03-21T06:42:36.468Z,8.40
2023-03-21T06:43:45.819Z,9.53
2023-03-21T06:44:48.035Z,9.63
2023-03-21T06:45:51.632Z,7.83
2023-03-21T06:46:54.311Z,8.10
2023-03-21T06:47:57.305Z,7.93
2023-03-21T06:49:26.142Z,7.93
2023-03-21T06:50:29.924Z,9.10
2023-03-21T06:51:32.374Z,8.97
2023-03-21T06:52:42.518Z,9.67
2023-03-21T06:53:45.071Z,10.00
2023-03-21T06:55:01.051Z,6.77
2023-03-21T06:56:03.447Z,7.80
2023-03-21T06:57:07.002Z,8.57
2023-03-21T06:58:10.606Z,7.90
2023-03-21T06:59:13.366Z,8.43
2023-03-21T07:00:34.454Z,9.23
2023-03-21T07:01:38.459Z,7.93
2023-03-21T07:02:42.792Z,8.87
2023-03-21T07:03:49.744Z,9.17
2023-03-21T07:04:54.468Z,8.80
2023-03-21T07:05:59.282Z,8.87
2023-03-21T07:07:01.693Z,7.57
2023-03-21T07:08:04.108Z,8.70
2023-03-21T07:09:10.188Z,10.30
2023-03-21T07:10:13.385Z,9.70
2023-03-21T07:11:39.609Z,8.43
2023-03-21T07:12:42.028Z,9.17
2023-03-21T07:14:05.391Z,9.50
2023-03-21T07:15:09.071Z,8.93
2023-03-21T07:16:12.232Z,8.87
2023-03-21T07:17:14.455Z,8.67
2023-03-21T07:18:17.492Z,9.17
2023-03-21T07:19:19.959Z,10.20
2023-03-21T07:20:22.756Z,8.17
2023-03-21T07:21:25.188Z,9.10
2023-03-21T07:22:29.025Z,9.30
2023-03-21T07:23:31.346Z,8.37
2023-03-21T07:24:36.088Z,9.50
2023-03-21T07:25:39.768Z,9.93
2023-03-21T07:26:42.462Z,7.10
2023-03-21T07:27:44.688Z,8.90
2023-03-21T07:28:46.897Z,7.60
2023-03-21T07:29:50.596Z,9.03
2023-03-21T07:30:56.073Z,8.73
2023-03-21T07:31:58.529Z,8.87
2023-03-21T07:33:01.160Z,8.10
2023-03-21T07:34:03.780Z,9.97
2023-03-21T07:35:09.116Z,11.03
2023-03-21T07:36:16.064Z,9.20
2023-03-21T07:37:18.467Z,9.10
2023-03-21T07:38:21.457Z,9.70
2023-03-21T07:39:24.800Z,9.97
2023-03-21T07:40:27.774Z,9.90
2023-03-21T07:41:31.166Z,10.13
2023-03-21T07:42:47.318Z,8.20
2023-03-21T07:43:49.524Z,8.33
2023-03-21T07:44:52.854Z,7.63
2023-03-21T07:45:59.592Z,9.03
2023-03-21T07:47:02.340Z,8.63
2023-03-21T07:48:04.693Z,9.47
2023-03-21T07:49:09.436Z,8.23
2023-03-21T07:50:11.866Z,7.13
2023-03-21T07:51:15.051Z,9.50
2023-03-21T07:52:18.343Z,10.37
2023-03-21T07:53:22.035Z,8.37
2023-03-21T07:54:24.637Z,8.67
2023-03-21T07:55:27.366Z,9.07
2023-03-21T07:56:29.651Z,7.83
2023-03-21T07:57:32.078Z,9.37
2023-03-21T07:58:36.572Z,8.40
2023-03-21T07:59:38.875Z,8.13
2023-03-21T08:00:43.416Z,9.73
2023-03-21T08:01:45.649Z,8.40
2023-03-21T08:02:49.073Z,9.50
2023-03-21T08:03:53.880Z,8.20
2023-03-21T08:04:56.448Z,8.43
2023-03-21T08:06:01.772Z,9.17
2023-03-21T08:07:04.128Z,8.87
2023-03-21T08:08:06.767Z,9.23
2023-03-21T08:09:11.076Z,8.33
2023-03-21T08:10:13.370Z,8.03
2023-03-21T08:11:21.632Z,8.50
2023-03-21T08:12:23.856Z,8.40
2023-03-21T08:13:26.216Z,9.37
2023-03-21T08:14:28.884Z,8.37
2023-03-21T08:15:31.721Z,9.40
2023-03-21T08:16:34.003Z,7.60
2023-03-21T08:17:38.292Z,9.60
2023-03-21T08:18:40.652Z,7.90
2023-03-21T08:19:42.938Z,10.07
2023-03-21T08:20:45.364Z,8.00
2023-03-21T08:21:49.573Z,8.17
2023-03-21T08:22:52.147Z,8.17
2023-03-21T08:23:54.877Z,7.10
2023-03-21T08:24:57.161Z,9.07
2023-03-21T08:25:59.434Z,8.47
2023-03-21T08:27:02.402Z,6.73
2023-03-21T08:28:05.883Z,7.37
2023-03-21T08:29:13.061Z,9.17
2023-03-21T08:30:18.698Z,8.17
2023-03-21T08:31:22.071Z,7.33
2023-03-21T08:32:29.479Z,8.50
2023-03-21T08:33:32.872Z,7.40
2023-03-21T08:34:35.726Z,7.27
2023-03-21T08:35:40.924Z,6.63
2023-03-21T08:36:44.040Z,7.93
2023-03-21T08:37:46.684Z,5.90
2023-03-21T08:38:55.326Z,7.43
2023-03-21T08:39:59.632Z,6.13
2023-03-21T08:41:03.110Z,7.40
2023-03-21T08:42:06.186Z,6.73
2023-03-21T08:43:08.541Z,7.87
2023-03-21T08:44:11.249Z,6.77
2023-03-21T08:45:15.425Z,6.57
2023-03-21T08:46:18.927Z,6.60
2023-03-21T08:47:21.315Z,6.57
2023-03-21T08:48:23.761Z,7.10
2023-03-21T08:49:29.552Z,5.93
2023-03-21T08:50:32.030Z,6.67
2023-03-21T08:51:37.789Z,8.13
2023-03-21T08:52:42.613Z,6.63
2023-03-21T08:53:45.158Z,7.73
2023-03-21T08:54:48.593Z,7.33
2023-03-21T08:55:51.644Z,8.93
2023-03-21T08:56:54.004Z,7.17
2023-03-21T08:57:58.676Z,5.30
2023-03-21T08:59:03.381Z,6.13
2023-03-21T09:00:13.004Z,6.60
2023-03-21T09:01:15.954Z,6.53
2023-03-21T09:02:21.168Z,6.67
2023-03-21T09:03:24.761Z,7.97
2023-03-21T09:04:27.812Z,5.30
2023-03-21T09:05:30.132Z,9.38
2023-03-21T09:06:33.648Z,8.33
2023-03-21T09:07:36.540Z,6.53
2023-03-21T09:08:39.433Z,6.83
2023-03-21T09:09:41.912Z,4.97
2023-03-21T09:10:44.149Z,4.93
2023-03-21T09:11:46.422Z,6.00
2023-03-21T09:12:52.060Z,5.80
2023-03-21T09:13:54.353Z,6.88
2023-03-21T09:14:58.232Z,5.83
2023-03-21T09:16:01.731Z,5.18
2023-03-21T09:17:04.381Z,5.40
2023-03-21T09:18:16.384Z,7.47
2023-03-21T09:19:19.062Z,6.27
2023-03-21T09:20:33.181Z,5.95
2023-03-21T09:21:37.216Z,6.00
2023-03-21T09:22:42.777Z,7.38
2023-03-21T09:23:45.483Z,6.90
2023-03-21T09:24:49.808Z,7.00
2023-03-21T09:25:52.181Z,7.53
2023-03-21T09:26:54.660Z,9.23
2023-03-21T09:27:58.307Z,8.02
2023-03-21T09:29:01.116Z,7.18
2023-03-21T09:30:06.211Z,8.55
2023-03-21T09:31:11.825Z,9.18
2023-03-21T09:32:16.408Z,7.75
2023-03-21T09:33:19.484Z,8.73
2023-03-21T09:34:23.158Z,7.87
2023-03-21T09:35:27.128Z,7.30
2023-03-21T09:36:32.075Z,7.80
2023-03-21T09:37:34.409Z,8.43
2023-03-21T09:38:37.087Z,8.07
2023-03-21T09:39:44.907Z,7.47
2023-03-21T09:40:50.002Z,6.85
2023-03-21T09:42:17.992Z,7.83
2023-03-21T09:43:51.592Z,5.47
2023-03-21T09:45:35.458Z,7.05
2023-03-21T09:46:52.108Z,6.83
2023-03-21T09:47:54.697Z,7.32
2023-03-21T09:49:01.731Z,7.37
2023-03-21T09:50:20.693Z,7.83
2023-03-21T09:51:27.277Z,8.60
2023-03-21T09:52:45.731Z,7.90
2023-03-21T09:53:51.969Z,7.75
2023-03-21T09:54:55.812Z,7.97
2023-03-21T09:56:00.028Z,6.60
2023-03-21T09:57:15.633Z,7.80
2023-03-21T09:58:29.665Z,7.50
2023-03-21T09:59:38.330Z,8.05
2023-03-21T10:00:46.017Z,8.45
2023-03-21T10:01:49.542Z,6.78
2023-03-21T10:02:57.532Z,7.18
2023-03-21T10:04:06.606Z,7.80
2023-03-21T10:05:24.619Z,7.32
2023-03-21T10:06:30.970Z,6.50
2023-03-21T10:07:38.925Z,7.43
2023-03-21T10:08:45.274Z,7.30
2023-03-21T10:09:49.084Z,7.22
2023-03-21T10:10:57.060Z,7.03
2023-03-21T10:12:04.325Z,7.30
2023-03-21T10:13:15.478Z,5.60
2023-03-21T10:14:42.406Z,5.63
2023-03-21T10:15:47.872Z,6.60
2023-03-21T10:16:56.801Z,6.55
2023-03-21T10:18:05.307Z,5.43
2023-03-21T10:19:14.527Z,5.40
2023-03-21T10:20:21.541Z,5.85
2023-03-21T10:21:56.649Z,5.70
2023-03-21T10:22:52.685Z,6.70
2023-03-21T10:23:57.495Z,6.40
2023-03-21T10:24:59.738Z,6.18
2023-03-21T10:26:05.475Z,6.22
2023-03-21T10:27:07.999Z,6.47
2023-03-21T10:28:21.412Z,6.20
2023-03-21T10:29:32.315Z,5.53
2023-03-21T10:30:42.359Z,6.18
2023-03-21T10:31:46.581Z,5.55
2023-03-21T10:32:49.686Z,5.88
2023-03-21T10:33:55.798Z,6.18
2023-03-21T10:34:58.966Z,5.70
2023-03-21T10:36:06.932Z,7.05
2023-03-21T10:37:11.288Z,6.35
2023-03-21T10:38:18.259Z,7.28
2023-03-21T10:39:28.803Z,6.13
2023-03-21T10:40:33.022Z,7.90
2023-03-21T10:41:36.185Z,7.63
2023-03-21T10:42:38.783Z,5.63
2023-03-21T10:43:41.854Z,7.82
2023-03-21T10:44:48.099Z,6.40
2023-03-21T10:45:50.620Z,7.55
2023-03-21T10:47:08.138Z,6.57
2023-03-21T10:48:11.093Z,6.55
2023-03-21T10:49:16.187Z,8.35
2023-03-21T10:50:25.218Z,9.20
2023-03-21T10:51:33.439Z,6.30
2023-03-21T10:52:41.803Z,7.10
2023-03-21T10:53:55.985Z,6.55
2023-03-21T10:55:09.005Z,6.88
2023-03-21T10:56:12.257Z,6.53
2023-03-21T10:57:22.688Z,5.65
2023-03-21T10:58:33.485Z,7.50
2023-03-21T10:59:43.091Z,6.30
2023-03-21T11:00:49.542Z,5.97
2023-03-21T11:01:55.744Z,7.97
2023-03-21T11:02:58.725Z,6.18
2023-03-21T11:04:06.785Z,6.43
2023-03-21T11:05:22.987Z,7.93
2023-03-21T11:06:34.595Z,4.72
2023-03-21T11:07:37.804Z,5.07
2023-03-21T11:08:47.656Z,5.20
2023-03-21T11:09:57.885Z,5.15
2023-03-21T11:11:08.666Z,5.07
2023-03-21T11:12:33.793Z,5.60
2023-03-21T11:13:43.683Z,4.72
2023-03-21T11:14:49.436Z,4.75
2023-03-21T11:16:03.819Z,6.35
2023-03-21T11:17:27.144Z,5.18
2023-03-21T11:18:33.385Z,4.78
2023-03-21T11:19:36.576Z,4.90
2023-03-21T11:20:45.059Z,8.35
2023-03-21T11:21:47.493Z,5.95
2023-03-21T11:22:54.496Z,5.00
2023-03-21T11:23:57.511Z,7.10
2023-03-21T11:25:02.004Z,5.00
2023-03-21T11:26:11.799Z,5.57
2023-03-21T11:27:14.080Z,4.88
2023-03-21T11:28:25.653Z,4.65
2023-03-21T11:29:42.767Z,4.63
2023-03-21T11:31:03.763Z,5.30
2023-03-21T11:32:27.179Z,4.97
2023-03-21T11:33:40.722Z,5.53
2023-03-21T11:34:49.969Z,4.70
2023-03-21T11:36:06.394Z,4.63
2023-03-21T11:37:19.122Z,5.88
2023-03-21T11:38:32.088Z,5.60
2023-03-21T11:39:43.855Z,5.18
2023-03-21T11:42:00.155Z,5.53
2023-03-21T11:43:24.762Z,4.50
2023-03-21T11:44:43.327Z,4.88
2023-03-21T11:46:06.136Z,6.18
2023-03-21T11:47:10.426Z,4.43
2023-03-21T11:48:14.871Z,6.28
2023-03-21T11:49:17.809Z,5.30
2023-03-21T11:50:40.142Z,4.45
2023-03-21T11:51:59.719Z,4.05
2023-03-21T11:53:20.255Z,5.15
2023-03-21T11:54:36.068Z,4.38
2023-03-21T11:56:06.074Z,4.72
2023-03-21T11:57:43.989Z,4.00
2023-03-21T11:58:57.299Z,3.80
2023-03-21T12:00:14.644Z,3.83
2023-03-21T12:01:33.258Z,6.85
2023-03-21T12:03:14.830Z,3.88
2023-03-21T12:04:51.420Z,4.63
2023-03-21T12:05:56.831Z,3.90
2023-03-21T12:07:09.608Z,4.30
2023-03-21T12:08:38.069Z,4.47
2023-03-21T12:09:45.420Z,4.88
2023-03-21T12:11:00.554Z,4.20
2023-03-21T12:12:02.707Z,5.07
2023-03-21T12:13:13.989Z,3.70
2023-03-21T12:14:43.697Z,6.05
2023-03-21T12:16:06.667Z,4.30
2023-03-21T12:17:26.311Z,3.83
2023-03-21T12:18:46.468Z,4.00
2023-03-21T12:19:49.560Z,3.83
2023-03-21T12:21:15.892Z,4.63
2023-03-21T12:22:33.057Z,4.05
2023-03-21T12:23:53.082Z,3.50
2023-03-21T12:25:06.486Z,3.80
2023-03-21T12:26:27.974Z,4.90
2023-03-21T12:27:52.878Z,3.97
2023-03-21T12:29:27.173Z,3.47
2023-03-21T12:31:11.498Z,4.00
2023-03-21T12:32:42.909Z,3.28
2023-03-21T12:33:45.058Z,3.78
2023-03-21T12:34:53.404Z,3.85
2023-03-21T12:36:40.562Z,3.42
2023-03-21T12:38:26.228Z,3.67
2023-03-21T12:39:33.848Z,3.55
2023-03-21T12:40:48.247Z,3.42
2023-03-21T12:42:06.824Z,3.10
2023-03-21T12:43:14.829Z,3.60
2023-03-21T12:44:21.298Z,3.67
2023-03-21T12:45:45.677Z,3.05
2023-03-21T12:47:07.016Z,4.65
2023-03-21T12:48:16.480Z,3.15
2023-03-21T12:49:29.891Z,3.20
2023-03-21T12:50:39.029Z,3.13
2023-03-21T12:51:48.674Z,3.42
2023-03-21T12:52:56.201Z,3.10
2023-03-21T12:54:13.264Z,3.92
2023-03-21T12:55:35.585Z,2.92
2023-03-21T12:57:12.968Z,2.90
2023-03-21T12:58:20.537Z,2.97
2023-03-21T12:59:32.008Z,3.83
2023-03-21T13:00:45.506Z,3.72
2023-03-21T13:01:51.902Z,4.07
2023-03-21T13:03:19.613Z,3.35
2023-03-21T13:05:00.846Z,3.10
2023-03-21T13:06:06.508Z,3.10
2023-03-21T13:07:14.865Z,2.80
2023-03-21T13:08:32.014Z,3.67
2023-03-21T13:09:40.237Z,3.40
2023-03-21T13:10:45.772Z,3.25
2023-03-21T13:11:51.708Z,3.03
2023-03-21T13:13:14.088Z,2.72
2023-03-21T13:14:27.907Z,4.60
2023-03-21T13:15:50.965Z,3.15
2023-03-21T13:17:02.590Z,2.80
2023-03-21T13:18:19.476Z,2.72
2023-03-21T13:19:48.993Z,4.63
2023-03-21T13:20:57.775Z,2.78
2023-03-21T13:22:07.933Z,2.42
2023-03-21T13:23:13.807Z,2.63
2023-03-21T13:24:22.164Z,2.95
2023-03-21T13:25:25.749Z,2.85
2023-03-21T13:26:40.908Z,2.78
2023-03-21T13:27:47.365Z,3.42
2023-03-21T13:28:50.854Z,3.40
2023-03-21T13:30:00.815Z,2.80
2023-03-21T13:31:15.553Z,2.53
2023-03-21T13:32:31.791Z,2.67
2023-03-21T13:33:35.008Z,3.08
2023-03-21T13:34:39.142Z,2.17
2023-03-21T13:35:44.673Z,3.28
2023-03-21T13:36:49.835Z,2.50
2023-03-21T13:38:02.237Z,2.70
2023-03-21T13:39:07.036Z,3.72
2023-03-21T13:40:38.072Z,2.80
2023-03-21T13:41:44.024Z,2.45
2023-03-21T13:42:52.411Z,3.88
2023-03-21T13:44:06.044Z,2.78
2023-03-21T13:45:11.648Z,2.45
2023-03-21T13:46:13.869Z,2.50
2023-03-21T13:47:44.259Z,2.80
2023-03-21T13:48:58.490Z,3.15
2023-03-21T13:50:25.894Z,4.20
2023-03-21T13:51:37.232Z,3.13
2023-03-21T13:52:39.866Z,2.78
2023-03-21T13:53:45.800Z,2.35
2023-03-21T13:54:56.348Z,2.53
2023-03-21T13:56:09.449Z,2.85
2023-03-21T13:57:33.367Z,2.47
2023-03-21T13:58:44.580Z,3.17
2023-03-21T13:59:49.210Z,2.30
2023-03-21T14:01:21.283Z,2.70
2023-03-21T14:02:23.506Z,2.33
2023-03-21T14:03:30.803Z,3.30
2023-03-21T14:04:42.561Z,3.03
2023-03-21T14:05:50.913Z,1.90
2023-03-21T14:07:00.410Z,2.25
2023-03-21T14:08:15.684Z,3.03
2023-03-21T14:09:33.112Z,2.83
2023-03-21T14:10:42.499Z,2.30
2023-03-21T14:11:47.340Z,2.72
2023-03-21T14:12:50.122Z,2.20
2023-03-21T14:13:54.829Z,3.00
2023-03-21T14:15:16.279Z,4.13
2023-03-21T14:16:21.059Z,2.40
2023-03-21T14:17:23.279Z,4.22
2023-03-21T14:18:51.775Z,2.28
2023-03-21T14:19:55.620Z,2.22
2023-03-21T14:20:59.691Z,3.50
2023-03-21T14:22:03.637Z,3.45
2023-03-21T14:23:09.131Z,2.88
2023-03-21T14:24:18.491Z,2.20
2023-03-21T14:25:37.053Z,2.17
2023-03-21T14:26:49.540Z,2.25
2023-03-21T14:27:55.981Z,3.25
2023-03-21T14:28:58.645Z,3.05
2023-03-21T14:30:02.289Z,2.60
2023-03-21T14:31:05.329Z,2.15
2023-03-21T14:32:22.076Z,2.63
2023-03-21T14:33:29.219Z,3.38
2023-03-21T14:34:35.905Z,3.08
2023-03-21T14:35:41.915Z,2.20
2023-03-21T14:36:51.666Z,2.47
2023-03-21T14:38:05.662Z,2.40
2023-03-21T14:39:17.351Z,2.50
2023-03-21T14:40:25.832Z,2.72
2023-03-21T14:41:29.950Z,3.55
2023-03-21T14:42:35.720Z,2.70
2023-03-21T14:43:37.980Z,2.67
2023-03-21T14:44:58.153Z,2.67
2023-03-21T14:46:01.668Z,2.42
2023-03-21T14:47:07.296Z,2.38
2023-03-21T14:48:14.901Z,2.60
2023-03-21T14:49:32.000Z,2.53
2023-03-21T14:50:37.109Z,2.30
2023-03-21T14:51:41.982Z,3.15
2023-03-21T14:52:44.572Z,2.30
2023-03-21T14:53:47.426Z,2.50
2023-03-21T14:54:51.151Z,3.63
2023-03-21T14:55:53.253Z,3.80
2023-03-21T14:57:09.198Z,3.08
2023-03-21T14:58:14.206Z,2.53
2023-03-21T14:59:23.471Z,2.47
2023-03-21T15:00:31.236Z,2.63
2023-03-21T15:01:36.443Z,2.47
2023-03-21T15:02:41.652Z,2.25
2023-03-21T15:03:50.279Z,3.03
2023-03-21T15:04:57.378Z,3.92
2023-03-21T15:06:00.565Z,2.63
2023-03-21T15:07:05.371Z,2.88
2023-03-21T15:08:17.477Z,3.28
2023-03-21T15:09:21.322Z,2.60
2023-03-21T15:10:26.551Z,3.88